createdAt,value
2019-03-28T00:01:32.896Z,6.70
2019-03-28T00:04:00.859Z,6.60
2019-03-28T00:06:28.909Z,6.50
2019-03-28T00:08:56.564Z,6.40
2019-03-28T00:11:24.932Z,6.40
2019-03-28T00:13:52.937Z,6.20
2019-03-28T00:16:20.426Z,6.30
2019-03-28T00:18:48.744Z,6.40
2019-03-28T00:21:16.372Z,6.30
2019-03-28T00:23:58.200Z,6.10
2019-03-28T00:26:30.566Z,6.00
2019-03-28T00:28:56.383Z,5.70
2019-03-28T00:31:24.388Z,5.70
2019-03-28T00:33:52.952Z,5.60
2019-03-28T00:36:20.947Z,5.50
2019-03-28T00:38:50.138Z,5.40
2019-03-28T00:41:18.892Z,5.50
2019-03-28T00:43:46.976Z,5.40
2019-03-28T00:46:14.823Z,5.30
2019-03-28T00:48:43.565Z,5.30
2019-03-28T00:51:11.396Z,5.40
2019-03-28T00:53:39.004Z,5.30
2019-03-28T00:56:07.362Z,5.20
2019-03-28T00:58:35.091Z,5.20
2019-03-28T01:01:03.281Z,5.20
2019-03-28T01:03:31.633Z,5.20
2019-03-28T01:05:59.384Z,5.20
2019-03-28T01:08:27.283Z,5.20
2019-03-28T01:10:55.628Z,5.20
2019-03-28T01:13:23.439Z,5.20
2019-03-28T01:15:51.349Z,5.10
2019-03-28T01:18:18.836Z,5.10
2019-03-28T01:20:46.664Z,5.10
2019-03-28T01:23:14.718Z,5.00
2019-03-28T01:25:42.232Z,5.00
2019-03-28T01:28:10.161Z,5.00
2019-03-28T01:30:37.776Z,4.90
2019-03-28T01:33:05.416Z,5.00
2019-03-28T01:35:33.155Z,4.90
2019-03-28T01:38:01.589Z,4.90
2019-03-28T01:40:29.552Z,4.90
2019-03-28T01:42:57.756Z,4.80
2019-03-28T01:45:25.616Z,4.80
2019-03-28T01:47:53.561Z,4.80
2019-03-28T01:50:22.501Z,4.80
2019-03-28T01:52:50.384Z,5.00
2019-03-28T01:55:18.208Z,5.00
2019-03-28T01:57:46.581Z,5.00
2019-03-28T02:00:15.109Z,5.00
2019-03-28T02:02:42.771Z,5.00
2019-03-28T02:05:10.728Z,5.10
2019-03-28T02:07:38.512Z,5.10
2019-03-28T02:10:06.880Z,5.00
2019-03-28T02:12:34.750Z,5.10
2019-03-28T02:15:05.006Z,5.10
2019-03-28T02:17:32.983Z,5.10
2019-03-28T02:20:00.900Z,5.00
2019-03-28T02:22:29.685Z,5.10
2019-03-28T02:24:57.256Z,5.10
2019-03-28T02:27:25.953Z,5.10
2019-03-28T02:29:54.407Z,5.00
2019-03-28T02:32:23.522Z,5.00
2019-03-28T02:34:53.191Z,5.10
2019-03-28T02:37:20.945Z,5.10
2019-03-28T02:39:48.809Z,5.10
2019-03-28T02:42:16.693Z,5.00
2019-03-28T02:44:44.681Z,5.00
2019-03-28T02:47:12.512Z,5.00
2019-03-28T02:49:40.641Z,5.00
2019-03-28T02:52:08.237Z,5.00
2019-03-28T02:54:36.661Z,5.00
2019-03-28T02:57:04.359Z,5.10
2019-03-28T02:59:32.394Z,5.10
2019-03-28T03:02:00.328Z,5.00
2019-03-28T03:04:27.869Z,5.00
2019-03-28T03:06:55.900Z,5.00
2019-03-28T03:09:23.778Z,5.00
2019-03-28T03:11:51.711Z,5.00
2019-03-28T03:14:19.524Z,5.10
2019-03-28T03:16:47.212Z,5.10
2019-03-28T03:19:15.564Z,5.00
2019-03-28T03:21:43.409Z,5.10
2019-03-28T03:24:22.038Z,5.10
2019-03-28T03:26:49.717Z,5.10
2019-03-28T03:29:17.192Z,5.10
2019-03-28T03:31:45.085Z,5.20
2019-03-28T03:34:12.925Z,5.30
2019-03-28T03:36:40.560Z,5.20
2019-03-28T03:39:09.012Z,5.20
2019-03-28T03:41:37.245Z,5.20
2019-03-28T03:44:05.606Z,5.20
2019-03-28T03:46:33.416Z,5.20
2019-03-28T03:49:01.679Z,5.20
2019-03-28T03:51:29.517Z,5.30
2019-03-28T03:53:57.374Z,5.20
2019-03-28T03:56:25.393Z,5.30
2019-03-28T03:58:54.325Z,5.20
2019-03-28T04:01:21.803Z,5.20
2019-03-28T04:03:50.060Z,5.30
2019-03-28T04:06:17.897Z,5.30
2019-03-28T04:08:45.917Z,5.20
2019-03-28T04:11:13.533Z,5.30
2019-03-28T04:13:41.249Z,5.30
2019-03-28T04:16:10.450Z,5.30
2019-03-28T04:18:38.060Z,5.20
2019-03-28T04:21:06.017Z,5.30
2019-03-28T04:23:34.076Z,5.10
2019-03-28T04:26:02.183Z,5.10
2019-03-28T04:28:32.185Z,5.20
2019-03-28T04:30:59.709Z,5.10
2019-03-28T04:33:27.496Z,5.00
2019-03-28T04:35:55.019Z,5.10
2019-03-28T04:38:22.591Z,5.10
2019-03-28T04:40:50.480Z,5.10
2019-03-28T04:43:18.589Z,5.00
2019-03-28T04:45:46.515Z,5.10
2019-03-28T04:48:14.704Z,4.90
2019-03-28T04:50:42.547Z,4.90
2019-03-28T04:53:11.509Z,5.00
2019-03-28T04:55:39.746Z,5.00
2019-03-28T04:58:07.504Z,4.90
2019-03-28T05:00:35.465Z,5.10
2019-03-28T05:03:03.546Z,5.00
2019-03-28T05:05:31.192Z,5.10
2019-03-28T05:07:58.796Z,5.10
2019-03-28T05:10:27.044Z,5.20
2019-03-28T05:12:54.591Z,5.20
2019-03-28T05:15:22.660Z,5.20
2019-03-28T05:17:50.697Z,5.20
2019-03-28T05:20:18.612Z,5.30
2019-03-28T05:22:47.092Z,5.30
2019-03-28T05:25:14.616Z,5.30
2019-03-28T05:27:42.238Z,5.30
2019-03-28T05:30:10.920Z,5.40
2019-03-28T05:32:38.536Z,5.40
2019-03-28T05:35:06.671Z,5.40
2019-03-28T05:37:34.472Z,5.40
2019-03-28T05:40:02.883Z,5.40
2019-03-28T05:42:30.853Z,5.40
2019-03-28T05:44:58.484Z,5.40
2019-03-28T05:47:26.288Z,5.40
2019-03-28T05:49:53.880Z,5.30
2019-03-28T05:52:22.600Z,5.30
2019-03-28T05:54:50.493Z,5.40
2019-03-28T05:57:18.039Z,5.40
2019-03-28T05:59:46.018Z,5.30
2019-03-28T06:02:13.993Z,5.40
2019-03-28T06:04:41.772Z,5.40
2019-03-28T06:07:10.291Z,5.30
2019-03-28T06:09:40.227Z,5.40
2019-03-28T06:12:08.096Z,5.30
2019-03-28T06:14:36.515Z,5.30
2019-03-28T06:17:04.104Z,5.40
2019-03-28T06:19:32.233Z,5.40
2019-03-28T06:22:00.060Z,5.40
2019-03-28T06:24:28.896Z,5.50
2019-03-28T06:26:56.460Z,5.60
2019-03-28T06:29:25.853Z,5.70
2019-03-28T06:31:55.453Z,5.80
2019-03-28T06:34:23.795Z,5.80
2019-03-28T06:36:51.638Z,5.90
2019-03-28T06:39:19.504Z,6.00
2019-03-28T06:41:48.524Z,6.20
2019-03-28T06:44:17.878Z,6.30
2019-03-28T06:46:45.764Z,6.40
2019-03-28T06:49:13.533Z,6.70
2019-03-28T06:51:41.745Z,6.70
2019-03-28T06:54:09.320Z,6.70
2019-03-28T06:56:36.881Z,6.80
2019-03-28T06:59:04.858Z,6.70
2019-03-28T07:01:32.840Z,6.80
2019-03-28T07:04:01.238Z,6.80
2019-03-28T07:06:29.577Z,7.00
2019-03-28T07:08:57.144Z,7.10
2019-03-28T07:11:26.185Z,7.10
2019-03-28T07:13:53.677Z,7.30
2019-03-28T07:16:22.252Z,7.40
2019-03-28T07:18:50.259Z,7.50
2019-03-28T07:21:18.331Z,7.50
2019-03-28T07:23:46.534Z,7.60
2019-03-28T07:26:15.056Z,7.70
2019-03-28T07:28:42.791Z,7.80
2019-03-28T07:31:12.611Z,8.10
2019-03-28T07:33:41.090Z,8.10
2019-03-28T07:36:09.672Z,8.20
2019-03-28T07:38:37.829Z,8.20
2019-03-28T07:41:06.182Z,8.50
2019-03-28T07:43:34.264Z,8.80
2019-03-28T07:46:02.547Z,9.00
2019-03-28T07:48:31.736Z,9.00
2019-03-28T07:50:59.844Z,9.00
2019-03-28T07:53:28.090Z,9.10
2019-03-28T07:55:56.391Z,9.20
2019-03-28T07:58:25.540Z,9.50
2019-03-28T08:00:53.967Z,9.90
2019-03-28T08:03:22.537Z,10.50
2019-03-28T08:05:50.538Z,10.80
2019-03-28T08:08:18.298Z,11.10
2019-03-28T08:10:45.824Z,11.20
2019-03-28T08:13:13.996Z,11.40
2019-03-28T08:15:42.232Z,11.50
2019-03-28T08:18:10.207Z,11.60
2019-03-28T08:20:38.230Z,11.50
2019-03-28T08:23:06.607Z,11.30
2019-03-28T08:25:34.718Z,11.30
2019-03-28T08:28:02.511Z,11.20
2019-03-28T08:30:35.355Z,11.20
2019-03-28T08:33:04.980Z,11.30
2019-03-28T08:35:34.644Z,11.40
2019-03-28T08:38:03.018Z,11.50
2019-03-28T08:40:39.157Z,11.70
2019-03-28T08:43:05.380Z,12.00
2019-03-28T08:45:34.398Z,12.20
2019-03-28T08:48:02.832Z,12.20
2019-03-28T08:50:31.168Z,12.20
2019-03-28T08:52:59.741Z,12.00
2019-03-28T08:55:27.776Z,11.90
2019-03-28T08:57:55.526Z,11.80
2019-03-28T09:00:33.221Z,11.70
2019-03-28T09:02:53.561Z,11.70
2019-03-28T09:05:21.713Z,11.80
2019-03-28T09:07:50.069Z,11.80
2019-03-28T09:10:17.661Z,11.80
2019-03-28T09:12:45.770Z,11.80
2019-03-28T09:15:14.040Z,11.90
2019-03-28T09:17:42.054Z,11.90
2019-03-28T09:20:09.840Z,11.80
2019-03-28T09:22:38.955Z,11.80
2019-03-28T09:25:07.200Z,12.00
2019-03-28T09:27:34.772Z,12.10
2019-03-28T09:30:03.909Z,12.10
2019-03-28T09:32:32.174Z,12.10
2019-03-28T09:35:00.426Z,12.20
2019-03-28T09:37:28.490Z,12.20
2019-03-28T09:39:56.605Z,12.20
2019-03-28T09:42:25.178Z,12.40
2019-03-28T09:44:53.469Z,12.50
2019-03-28T09:47:21.429Z,12.60
2019-03-28T09:49:49.452Z,12.60
2019-03-28T09:52:17.406Z,12.60
2019-03-28T09:54:47.144Z,12.60
2019-03-28T09:57:15.040Z,12.80
2019-03-28T09:59:42.675Z,12.90
2019-03-28T10:02:10.538Z,12.90
2019-03-28T10:04:38.976Z,13.00
2019-03-28T10:07:06.898Z,13.00
2019-03-28T10:09:35.448Z,13.10
2019-03-28T10:12:03.308Z,13.10
2019-03-28T10:14:31.523Z,13.10
2019-03-28T10:16:59.086Z,13.30
2019-03-28T10:19:26.636Z,13.60
2019-03-28T10:21:55.469Z,13.80
2019-03-28T10:24:23.172Z,13.90
2019-03-28T10:26:50.868Z,14.00
2019-03-28T10:29:18.891Z,13.80
2019-03-28T10:31:47.122Z,13.80
2019-03-28T10:34:15.733Z,13.80
2019-03-28T10:36:43.460Z,13.90
2019-03-28T10:39:11.144Z,13.90
2019-03-28T10:41:40.002Z,14.00
2019-03-28T10:44:09.944Z,14.10
2019-03-28T10:46:37.710Z,14.00
2019-03-28T10:49:06.141Z,14.00
2019-03-28T10:51:33.705Z,14.00
2019-03-28T10:54:01.827Z,14.00
2019-03-28T10:56:30.102Z,14.10
2019-03-28T10:58:58.676Z,14.10
2019-03-28T11:01:47.088Z,14.30
2019-03-28T11:03:57.588Z,14.30
2019-03-28T11:06:25.716Z,14.50
2019-03-28T11:08:53.651Z,14.60
2019-03-28T11:11:22.590Z,14.50
2019-03-28T11:13:50.901Z,14.50
2019-03-28T11:16:19.086Z,14.60
2019-03-28T11:18:46.769Z,14.80
2019-03-28T11:21:14.727Z,14.90
2019-03-28T11:23:42.697Z,14.90
2019-03-28T11:26:11.103Z,14.90
2019-03-28T11:28:39.296Z,15.10
2019-03-28T11:31:07.255Z,15.30
2019-03-28T11:33:35.201Z,15.40
2019-03-28T11:36:22.517Z,15.40
2019-03-28T11:38:50.578Z,15.60
2019-03-28T11:41:18.824Z,15.80
2019-03-28T11:43:47.132Z,16.00
2019-03-28T11:46:14.944Z,16.20
2019-03-28T11:48:43.055Z,16.20
2019-03-28T11:51:11.124Z,16.10
2019-03-28T11:53:38.832Z,16.00
2019-03-28T11:56:06.787Z,15.90
2019-03-28T11:58:34.490Z,15.90
2019-03-28T12:01:02.592Z,15.90
2019-03-28T12:03:30.524Z,16.00
2019-03-28T12:05:58.376Z,15.90
2019-03-28T12:08:25.840Z,16.00
2019-03-28T12:10:53.828Z,16.10
2019-03-28T12:13:21.416Z,16.20
2019-03-28T12:15:50.844Z,16.50
2019-03-28T12:18:19.444Z,16.60
2019-03-28T12:20:47.276Z,16.70
2019-03-28T12:23:15.112Z,16.80
2019-03-28T12:25:43.073Z,16.90
2019-03-28T12:28:10.993Z,16.90
2019-03-28T12:30:39.040Z,17.00
2019-03-28T12:33:07.244Z,17.20
2019-03-28T12:35:34.985Z,17.30
2019-03-28T12:38:02.878Z,17.30
2019-03-28T12:40:30.798Z,17.40
2019-03-28T12:42:58.658Z,17.60
2019-03-28T12:45:26.593Z,17.50
2019-03-28T12:47:54.981Z,17.50
2019-03-28T12:50:23.616Z,17.60
2019-03-28T12:52:51.204Z,17.60
2019-03-28T12:55:19.152Z,17.60
2019-03-28T12:57:48.484Z,17.50
2019-03-28T13:00:20.429Z,17.60
2019-03-28T13:02:48.620Z,17.70
2019-03-28T13:05:16.705Z,17.80
2019-03-28T13:07:44.533Z,17.90
2019-03-28T13:10:12.727Z,17.80
2019-03-28T13:12:41.084Z,17.80
2019-03-28T13:15:10.083Z,17.70
2019-03-28T13:17:37.907Z,17.80
2019-03-28T13:20:07.022Z,17.90
2019-03-28T13:22:34.469Z,18.10
2019-03-28T13:25:02.305Z,18.30
2019-03-28T13:27:30.433Z,18.50
2019-03-28T13:29:58.875Z,18.60
2019-03-28T13:32:26.781Z,18.70
2019-03-28T13:34:54.465Z,18.70
2019-03-28T13:37:22.256Z,18.40
2019-03-28T13:39:50.126Z,18.10
2019-03-28T13:42:18.048Z,18.10
2019-03-28T13:44:45.914Z,18.30
2019-03-28T13:47:13.889Z,18.40
2019-03-28T13:49:41.604Z,18.50
2019-03-28T13:52:09.632Z,18.40
2019-03-28T13:54:37.572Z,18.40
2019-03-28T13:57:05.741Z,18.30
2019-03-28T13:59:35.374Z,18.30
2019-03-28T14:02:06.655Z,18.20
2019-03-28T14:04:33.573Z,18.20
2019-03-28T14:07:01.435Z,18.30
2019-03-28T14:09:29.588Z,18.30
2019-03-28T14:11:57.418Z,18.20
2019-03-28T14:14:25.348Z,18.10
2019-03-28T14:16:53.589Z,18.00
2019-03-28T14:19:21.629Z,17.90
2019-03-28T14:21:49.324Z,17.90
2019-03-28T14:24:17.240Z,17.70
2019-03-28T14:26:44.940Z,17.70
2019-03-28T14:29:14.041Z,17.60
2019-03-28T14:31:42.153Z,17.50
2019-03-28T14:34:10.536Z,17.60
2019-03-28T14:36:39.678Z,17.50
2019-03-28T14:39:08.712Z,17.40
2019-03-28T14:41:36.524Z,17.30
2019-03-28T14:44:04.668Z,17.30
2019-03-28T14:46:32.749Z,17.20
2019-03-28T14:49:02.029Z,17.30
2019-03-28T14:51:30.065Z,17.40
2019-03-28T14:53:57.862Z,17.40
2019-03-28T14:56:26.453Z,17.40
2019-03-28T14:58:55.057Z,17.50
2019-03-28T15:01:22.653Z,17.60
2019-03-28T15:03:50.157Z,17.50
2019-03-28T15:06:18.155Z,17.40
2019-03-28T15:08:46.414Z,17.30
2019-03-28T15:11:13.977Z,17.30
2019-03-28T15:13:42.113Z,17.30
2019-03-28T15:16:10.983Z,17.40
2019-03-28T15:18:38.841Z,17.50
2019-03-28T15:21:06.684Z,17.50
2019-03-28T15:23:34.784Z,17.50
2019-03-28T15:26:03.256Z,17.30
2019-03-28T15:28:31.044Z,17.00
2019-03-28T15:30:59.889Z,16.80
2019-03-28T15:33:38.678Z,16.60
2019-03-28T15:35:58.788Z,16.30
2019-03-28T15:38:26.888Z,16.20
2019-03-28T15:40:54.793Z,16.10
2019-03-28T15:43:22.962Z,16.00
2019-03-28T15:45:52.311Z,15.90
2019-03-28T15:48:21.053Z,15.70
2019-03-28T15:50:48.956Z,15.80
2019-03-28T15:53:16.853Z,15.80
2019-03-28T15:55:44.780Z,15.90
2019-03-28T15:58:22.388Z,15.90
2019-03-28T16:00:42.988Z,15.80
2019-03-28T16:03:11.858Z,15.80
2019-03-28T16:06:01.054Z,15.80
2019-03-28T16:08:28.929Z,15.80
2019-03-28T16:10:57.085Z,15.70
2019-03-28T16:13:25.157Z,15.70
2019-03-28T16:16:24.773Z,15.70
2019-03-28T16:18:52.735Z,15.70
2019-03-28T16:21:20.980Z,15.60
2019-03-28T16:23:49.912Z,15.60
2019-03-28T16:26:18.204Z,15.50
2019-03-28T16:28:45.828Z,15.50
2019-03-28T16:31:15.267Z,15.50
2019-03-28T16:33:43.216Z,15.50
2019-03-28T16:36:11.213Z,15.60
2019-03-28T16:38:40.521Z,15.60
2019-03-28T16:41:08.813Z,15.60
2019-03-28T16:43:36.840Z,15.60
2019-03-28T16:46:07.631Z,15.60
2019-03-28T16:48:34.316Z,15.60
2019-03-28T16:51:02.328Z,15.60
2019-03-28T16:53:30.230Z,15.70
2019-03-28T16:55:58.227Z,15.60
2019-03-28T16:58:26.072Z,15.60
2019-03-28T17:00:53.956Z,15.50
2019-03-28T17:03:22.037Z,15.50
2019-03-28T17:05:49.926Z,15.40
2019-03-28T17:08:18.350Z,15.30
2019-03-28T17:10:57.519Z,15.40
2019-03-28T17:13:25.264Z,15.30
2019-03-28T17:15:53.248Z,15.10
2019-03-28T17:18:43.044Z,15.10
2019-03-28T17:21:11.501Z,15.10
2019-03-28T17:23:39.579Z,15.10
2019-03-28T17:26:09.002Z,14.90
2019-03-28T17:28:36.980Z,14.80
2019-03-28T17:31:06.869Z,14.70
2019-03-28T17:33:35.312Z,14.60
2019-03-28T17:36:03.653Z,14.40
2019-03-28T17:38:31.917Z,14.40
2019-03-28T17:40:59.832Z,14.30
2019-03-28T17:43:27.699Z,14.20
2019-03-28T17:45:55.913Z,14.30
2019-03-28T17:48:24.308Z,14.30
2019-03-28T17:50:52.180Z,14.20
2019-03-28T17:53:20.145Z,14.00
2019-03-28T17:55:48.344Z,14.00
2019-03-28T17:58:16.165Z,13.90
2019-03-28T18:00:46.948Z,13.80
2019-03-28T18:03:14.717Z,13.70
2019-03-28T18:05:42.773Z,13.80
2019-03-28T18:08:11.935Z,13.60
2019-03-28T18:10:40.299Z,13.50
2019-03-28T18:13:08.293Z,13.50
2019-03-28T18:15:36.825Z,13.40
2019-03-28T18:18:04.890Z,13.40
2019-03-28T18:20:33.092Z,13.30
2019-03-28T18:23:00.916Z,13.40
2019-03-28T18:25:30.361Z,13.40
2019-03-28T18:27:58.668Z,13.30
2019-03-28T18:30:26.747Z,13.20
2019-03-28T18:32:54.726Z,13.20
2019-03-28T18:35:22.429Z,13.30
2019-03-28T18:37:50.853Z,13.30
2019-03-28T18:40:19.188Z,13.30
2019-03-28T18:42:48.077Z,13.20
2019-03-28T18:45:16.304Z,13.20
2019-03-28T18:47:44.118Z,13.20
2019-03-28T18:50:12.429Z,13.20
2019-03-28T18:52:40.822Z,13.20
2019-03-28T18:55:09.678Z,13.20
2019-03-28T18:57:37.405Z,13.20
2019-03-28T19:00:06.592Z,13.10
2019-03-28T19:02:34.461Z,13.00
2019-03-28T19:05:03.125Z,13.00
2019-03-28T19:07:31.176Z,12.90
2019-03-28T19:09:59.472Z,12.90
2019-03-28T19:12:28.069Z,12.80
2019-03-28T19:14:56.469Z,12.80
2019-03-28T19:17:24.021Z,12.80
2019-03-28T19:19:52.043Z,12.80
2019-03-28T19:22:19.758Z,12.80
2019-03-28T19:24:47.292Z,12.80
2019-03-28T19:27:15.614Z,12.80
2019-03-28T19:29:43.642Z,12.80
2019-03-28T19:32:11.500Z,12.80
2019-03-28T19:34:39.695Z,12.80
2019-03-28T19:37:07.560Z,12.80
2019-03-28T19:39:36.582Z,12.90
2019-03-28T19:42:04.991Z,12.90
2019-03-28T19:44:33.228Z,12.90
2019-03-28T19:47:01.489Z,12.90
2019-03-28T19:49:29.820Z,12.80
2019-03-28T19:51:57.576Z,12.80
2019-03-28T19:54:25.348Z,12.70
2019-03-28T19:56:53.566Z,12.60
2019-03-28T19:59:21.448Z,12.50
2019-03-28T20:01:50.445Z,12.50
2019-03-28T20:04:18.623Z,12.40
2019-03-28T20:06:46.534Z,12.30
2019-03-28T20:09:16.681Z,12.20
2019-03-28T20:11:45.297Z,12.10
2019-03-28T20:14:13.234Z,12.00
2019-03-28T20:16:40.865Z,12.00
2019-03-28T20:19:12.918Z,11.80
2019-03-28T20:21:40.726Z,11.80
2019-03-28T20:24:09.720Z,11.70
2019-03-28T20:26:37.702Z,11.60
2019-03-28T20:29:05.585Z,11.50
2019-03-28T20:31:33.748Z,11.40
2019-03-28T20:34:03.157Z,11.40
2019-03-28T20:36:38.467Z,11.30
2019-03-28T20:39:04.108Z,11.20
2019-03-28T20:41:32.285Z,11.10
2019-03-28T20:43:59.746Z,11.10
2019-03-28T20:46:27.405Z,11.10
2019-03-28T20:48:55.152Z,11.10
2019-03-28T20:51:24.586Z,11.10
2019-03-28T20:53:53.011Z,11.00
2019-03-28T20:56:21.613Z,11.00
2019-03-28T20:58:49.851Z,11.10
2019-03-28T21:01:18.473Z,11.00
2019-03-28T21:03:49.433Z,11.10
2019-03-28T21:06:19.354Z,11.00
2019-03-28T21:08:46.492Z,11.00
2019-03-28T21:11:14.885Z,11.10
2019-03-28T21:13:42.447Z,11.10
2019-03-28T21:16:10.159Z,11.10
2019-03-28T21:18:37.976Z,11.10
2019-03-28T21:21:06.116Z,11.00
2019-03-28T21:23:34.426Z,11.00
2019-03-28T21:26:02.408Z,11.00
2019-03-28T21:28:30.351Z,11.00
2019-03-28T21:30:59.212Z,11.00
2019-03-28T21:33:28.382Z,11.00
2019-03-28T21:35:55.944Z,11.10
2019-03-28T21:38:23.966Z,11.00
2019-03-28T21:40:51.841Z,11.00
2019-03-28T21:43:19.674Z,10.90
2019-03-28T21:45:47.268Z,10.90
2019-03-28T21:48:15.237Z,10.80
2019-03-28T21:50:43.512Z,10.80
2019-03-28T21:53:11.622Z,10.80
2019-03-28T21:55:39.377Z,10.80
2019-03-28T21:58:07.183Z,10.80
2019-03-28T22:00:35.186Z,10.70
2019-03-28T22:03:03.328Z,10.80
2019-03-28T22:05:31.229Z,10.80
2019-03-28T22:07:59.305Z,10.70
2019-03-28T22:10:27.276Z,10.70
2019-03-28T22:12:55.763Z,10.70
2019-03-28T22:15:23.824Z,10.70
2019-03-28T22:17:51.398Z,10.60
2019-03-28T22:20:19.392Z,10.50
2019-03-28T22:22:47.329Z,10.50
2019-03-28T22:25:15.313Z,10.50
2019-03-28T22:27:43.642Z,10.60
2019-03-28T22:30:13.036Z,10.60
2019-03-28T22:32:40.916Z,10.60
2019-03-28T22:35:09.545Z,10.60
2019-03-28T22:37:37.290Z,10.60
2019-03-28T22:40:05.952Z,10.60
2019-03-28T22:42:34.108Z,10.50
2019-03-28T22:45:02.286Z,10.40
2019-03-28T22:47:30.165Z,10.40
2019-03-28T22:49:58.681Z,10.40
2019-03-28T22:52:26.721Z,10.30
2019-03-28T22:54:54.464Z,10.30
2019-03-28T22:57:22.067Z,10.40
2019-03-28T22:59:50.147Z,10.30
2019-03-28T23:02:18.061Z,10.30
2019-03-28T23:04:46.208Z,10.30
2019-03-28T23:07:15.760Z,10.30
2019-03-28T23:09:43.561Z,10.30
2019-03-28T23:12:11.947Z,10.30
2019-03-28T23:14:39.790Z,10.20
2019-03-28T23:17:09.121Z,10.10
2019-03-28T23:19:36.827Z,10.10
2019-03-28T23:22:04.819Z,10.00
2019-03-28T23:24:32.600Z,10.00
2019-03-28T23:27:01.218Z,9.90
2019-03-28T23:29:29.002Z,9.90
2019-03-28T23:31:56.580Z,10.00
2019-03-28T23:34:26.155Z,10.00
2019-03-28T23:36:54.274Z,9.90
2019-03-28T23:39:21.985Z,9.90
2019-03-28T23:41:50.304Z,9.80
2019-03-28T23:44:17.908Z,9.80
2019-03-28T23:46:45.749Z,9.70
2019-03-28T23:49:13.880Z,9.70
2019-03-28T23:51:41.936Z,9.70
2019-03-28T23:54:09.531Z,9.60
2019-03-28T23:56:37.245Z,9.50
2019-03-28T23:59:05.019Z,9.50
